Flood From: 19-02-2018 10:30 Until: 20-02-2018 06:00 warning for: Flood Level: Yellow info button

Although rather usual in this region, locally or potentially dangerous phenomena are expected. (such as local winds, summer thunderstorms, rising streams or high waves) Be aware and pay attention to the latest weather updates, especially if you carry out activities exposed to weather or close to a stream or shoreline. 


Meteo18 Weather Cam more information Meteo18 Weather Cam


Thunder radar more information blitzortung!


Rain radar more information rain snow radar


Visit our other weather sites:

Template documentation
and downloads

And another site



Weather Underground History page Text

Daily Summary for March 29, 2017 Units:  Metric    English   Both
« Previous Day
Next Day »
Daily Weekly Monthly Yearly Custom
  High: Low: Average:
Temperature: -17.8 °C -15.1 °C -10.7 °C
Dew Point: -17.8 °C -15.5 °C -13.9 °C
Humidity: Humidity % 40 % 70 %
Wind Speed: 0 km/h 0 km/h 1.9 km/h
Wind Gust: 0 km/h - -
Wind:- - SW
Pressure: 0 hPa 34740.4 hPa -
Precipitation: 0 mm    
Historical Graphs
 
 
Tabular Data for March 29, 2017
Time Temperature Dew Point Pressure Wind Wind Speed Wind Gust Humidity Rainfall Rate (Hourly)
-17.8 °C -17.8 °C 0 hPa Calm     Humidity % 0 mm
00:02 -12.1 °C -13.8 °C 34808.1 hPa Calm   2.6 km/h 81 % 0 mm
00:12 -12.1 °C -13.9 °C 34818.2 hPa Calm   2.6 km/h 80 % 0 mm
00:17 -12.2 °C -14 °C 34818.2 hPa Calm     80 % 0 mm
00:22 -12.3 °C -14.1 °C 34818.2 hPa Calm     80 % 0 mm
00:32 -12.5 °C -14.1 °C 34818.2 hPa Calm     82 % 0 mm
00:42 -12.6 °C -14.1 °C 34831.8 hPa Calm     83 % 0 mm
00:47 -12.6 °C -14.1 °C 34818.2 hPa Calm     84 % 0 mm
00:52 -12.6 °C -14 °C 34818.2 hPa Calm     84 % 0 mm
00:59 -12.6 °C -14.1 °C 34831.8 hPa Calm     83 % 0 mm
01:07 -12.4 °C -13.9 °C 34831.8 hPa Calm   2.6 km/h 83 % 0 mm
01:12 -12.5 °C -14.1 °C 34831.8 hPa Calm   2.6 km/h 82 % 0 mm
01:17 -12.7 °C -14.3 °C 34831.8 hPa Calm   2.6 km/h 82 % 0 mm
01:22 -12.7 °C -14.2 °C 34818.2 hPa Calm     84 % 0 mm
01:32 -12.6 °C -14.1 °C 34818.2 hPa Calm     84 % 0 mm
01:42 -12.7 °C -14.2 °C 34818.2 hPa Calm     83 % 0 mm
01:47 -12.8 °C -14.3 °C 34818.2 hPa Calm     83 % 0 mm
01:52 -12.9 °C -14.3 °C 34818.2 hPa Calm     84 % 0 mm
01:57 -13 °C -14.3 °C 34818.2 hPa Calm     85 % 0 mm
02:02 -13.1 °C -14.4 °C 34818.2 hPa Calm     85 % 0 mm
02:07 -13.1 °C -14.3 °C 34818.2 hPa Calm     86 % 0 mm
02:12 -13.2 °C -14.4 °C 34818.2 hPa Calm     86 % 0 mm
02:17 -13.3 °C -14.4 °C 34818.2 hPa Calm     87 % 0 mm
02:22 -13.2 °C -14.3 °C 34818.2 hPa Calm     88 % 0 mm
02:32 -13.2 °C -14.3 °C 34818.2 hPa Calm     87 % 0 mm
02:42 -13.4 °C -14.4 °C 34818.2 hPa Calm     88 % 0 mm
02:52 -13.3 °C -14.2 °C 34818.2 hPa Calm     89 % 0 mm
02:57 -13.2 °C -14.2 °C 34818.2 hPa Calm     88 % 0 mm
03:02 -13.1 °C -14.2 °C 34818.2 hPa Calm     88 % 0 mm
03:12 -13.1 °C -14.2 °C 34818.2 hPa Calm     87 % 0 mm
03:17 -13.2 °C -14.3 °C 34818.2 hPa Calm     87 % 0 mm
03:22 -13.2 °C -14.3 °C 34818.2 hPa Calm     87 % 0 mm
03:32 -13.4 °C -14.5 °C 34818.2 hPa Calm     88 % 0 mm
03:42 -13.7 °C -14.7 °C 34818.2 hPa Calm     89 % 0 mm
03:47 -13.8 °C -14.8 °C 34818.2 hPa Calm     89 % 0 mm
03:52 -13.8 °C -14.7 °C 34818.2 hPa Calm     90 % 0 mm
03:57 -13.9 °C -14.8 °C 34818.2 hPa Calm     90 % 0 mm
04:02 -13.9 °C -14.7 °C 34818.2 hPa Calm     91 % 0 mm
04:12 -13.9 °C -14.7 °C 34808.1 hPa Calm     91 % 0 mm
04:17 -13.9 °C -14.7 °C 34808.1 hPa Calm     91 % 0 mm
04:22 -14 °C -14.8 °C 34808.1 hPa Calm     91 % 0 mm
04:32 -14.1 °C -14.9 °C 34818.2 hPa Calm     91 % 0 mm
04:42 -14.2 °C -14.9 °C 34818.2 hPa Calm     92 % 0 mm
04:52 -14.4 °C -15.1 °C 34818.2 hPa Calm     92 % 0 mm
04:57 -14.4 °C -15.1 °C 34818.2 hPa Calm     92 % 0 mm
05:02 -14.5 °C -15.1 °C 34818.2 hPa Calm     93 % 0 mm
05:07 -14.5 °C -15.1 °C 34818.2 hPa Calm     93 % 0 mm
05:12 -14.5 °C -15.1 °C 34818.2 hPa Calm     93 % 0 mm
05:17 -14.4 °C -14.9 °C 34818.2 hPa Calm     94 % 0 mm
05:22 -14.6 °C -15.1 °C 34818.2 hPa Calm     93 % 0 mm
05:32 -14.6 °C -15.1 °C 34818.2 hPa Calm   2.6 km/h 94 % 0 mm
05:42 -14.6 °C -15.1 °C 34818.2 hPa Calm   2.6 km/h 94 % 0 mm
05:47 -14.6 °C -15.1 °C 34818.2 hPa Calm     94 % 0 mm
05:52 -14.6 °C -15.1 °C 34818.2 hPa Calm     94 % 0 mm
06:02 -14.6 °C -15.1 °C 34818.2 hPa Calm   2.6 km/h 94 % 0 mm
06:07 -14.6 °C -15.1 °C 34818.2 hPa Calm   2.6 km/h 94 % 0 mm
06:12 -14.6 °C -15.1 °C 34818.2 hPa Calm   2.6 km/h 94 % 0 mm
06:17 -14.8 °C -15.3 °C 34818.2 hPa Calm   2.6 km/h 93 % 0 mm
06:22 -14.9 °C -15.4 °C 34818.2 hPa Calm   2.6 km/h 94 % 0 mm
06:32 -14.8 °C -15.2 °C 34818.2 hPa North 2.6 km/h 2.6 km/h 95 % 0 mm
06:37 -14.8 °C -15.2 °C 34818.2 hPa North 5.1 km/h 5.1 km/h 95 % 0 mm
06:42 -14.7 °C -15.1 °C 34818.2 hPa Calm   5.1 km/h 95 % 0 mm
06:47 -14.8 °C -15.3 °C 34818.2 hPa North 2.6 km/h 5.1 km/h 94 % 0 mm
06:52 -14.8 °C -15.2 °C 34818.2 hPa Calm   5.1 km/h 95 % 0 mm
06:57 -14.8 °C -15.2 °C 34818.2 hPa Calm   2.6 km/h 95 % 0 mm
07:02 -14.9 °C -15.4 °C 34818.2 hPa Calm   2.6 km/h 94 % 0 mm
07:12 -14.9 °C -15.3 °C 34818.2 hPa Calm     95 % 0 mm
07:22 -15.1 °C -15.4 °C 34831.8 hPa Calm     95 % 0 mm
07:32 -14.9 °C -15.3 °C 34831.8 hPa Calm     96 % 0 mm
07:42 -15.1 °C -15.4 °C 34831.8 hPa Calm     95 % 0 mm
07:47 -15.1 °C -15.5 °C 34831.8 hPa Calm     95 % 0 mm
07:52 -15.1 °C -15.4 °C 34831.8 hPa Calm   2.6 km/h 95 % 0 mm
07:57 -14.9 °C -15.3 °C 34831.8 hPa Calm   2.6 km/h 95 % 0 mm
08:02 -14.8 °C -15.2 °C 34841.9 hPa Calm   2.6 km/h 96 % 0 mm
08:12 -14.8 °C -15.2 °C 34841.9 hPa Calm     95 % 0 mm
08:17 -14.8 °C -15.2 °C 34841.9 hPa Calm     95 % 0 mm
08:22 -14.7 °C -15.1 °C 34841.9 hPa Calm     95 % 0 mm
08:27 -14.6 °C -14.9 °C 34841.9 hPa Calm     95 % 0 mm
08:32 -14.1 °C -14.4 °C 34841.9 hPa Calm     96 % 0 mm
08:42 -13.7 °C -14.1 °C 34841.9 hPa Calm     95 % 0 mm
08:52 -13.4 °C -13.9 °C 34852.1 hPa Calm     94 % 0 mm
09:02 -12.4 °C -12.9 °C 34852.1 hPa Calm     94 % 0 mm
09:12 -11.8 °C -12.7 °C 34852.1 hPa Calm     90 % 0 mm
09:17 -12.3 °C -13.7 °C 34852.1 hPa SE 2.6 km/h   84 % 0 mm
09:22 -12.7 °C -14 °C 34852.1 hPa ESE 2.6 km/h 5.1 km/h 85 % 0 mm
09:27 -12.8 °C -13.9 °C 34852.1 hPa SE 2.6 km/h 5.1 km/h 87 % 0 mm
09:32 -12.9 °C -14 °C 34852.1 hPa SE 2.6 km/h 5.1 km/h 88 % 0 mm
09:37 -12.9 °C -13.9 °C 34852.1 hPa Calm   5.1 km/h 89 % 0 mm
09:42 -12.8 °C -13.8 °C 34852.1 hPa Calm   5.1 km/h 89 % 0 mm
09:52 -12.3 °C -13.4 °C 34852.1 hPa Calm   2.6 km/h 87 % 0 mm
10:02 -12 °C -13.2 °C 34852.1 hPa Calm     86 % 0 mm
10:07 -11.8 °C -13.1 °C 34852.1 hPa Calm     85 % 0 mm
10:12 -11.6 °C -13.1 °C 34865.6 hPa Calm     84 % 0 mm
10:17 -11.4 °C -12.8 °C 34865.6 hPa Calm     84 % 0 mm
10:22 -11.2 °C -12.7 °C 34865.6 hPa Calm     83 % 0 mm
10:32 -10.7 °C -12.5 °C 34865.6 hPa SE 2.6 km/h   81 % 0 mm
10:42 -10.5 °C -12.7 °C 34865.6 hPa Calm   2.6 km/h 77 % 0 mm
10:52 -10.6 °C -12.7 °C 34865.6 hPa Calm   5.1 km/h 78 % 0 mm
11:02 -10.5 °C -12.7 °C 34865.6 hPa ESE 2.6 km/h 7.7 km/h 77 % 0 mm
11:12 -10.2 °C -12.4 °C 34865.6 hPa Calm   7.7 km/h 77 % 0 mm
11:17 -10.1 °C -12.4 °C 34865.6 hPa SE 2.6 km/h 7.7 km/h 76 % 0 mm
11:22 -10 °C -12.3 °C 34865.6 hPa East 2.6 km/h 7.7 km/h 76 % 0 mm
11:32 -9.6 °C -12 °C 34865.6 hPa SE 5.1 km/h 7.7 km/h 75 % 0 mm
11:37 -9.4 °C -12 °C 34865.6 hPa SE 7.7 km/h 7.7 km/h 74 % 0 mm
11:42 -9.4 °C -12.1 °C 34865.6 hPa ESE 7.7 km/h 10.3 km/h 73 % 0 mm
11:47 -9.3 °C -11.9 °C 34865.6 hPa ESE 2.6 km/h 10.3 km/h 74 % 0 mm
11:52 -9.1 °C -12.1 °C 34865.6 hPa SE 7.7 km/h 10.3 km/h 70 % 0 mm
12:02 -8.8 °C -12.1 °C 34865.6 hPa SSE 7.7 km/h 10.3 km/h 68 % 0 mm
12:07 -8.7 °C -12.1 °C 34865.6 hPa SSE 2.6 km/h 10.3 km/h 67 % 0 mm
12:12 -8.7 °C -12.1 °C 34865.6 hPa ESE 7.7 km/h 10.3 km/h 67 % 0 mm
12:17 -8.7 °C -12.3 °C 34865.6 hPa Calm   10.3 km/h 66 % 0 mm
12:22 -8.6 °C -12.1 °C 34865.6 hPa SSE 2.6 km/h 10.3 km/h 66 % 0 mm
12:32 -8.4 °C -12.8 °C 34852.1 hPa SSW 5.1 km/h 10.3 km/h 60 % 0 mm
12:37 -8.4 °C -12.6 °C 34852.1 hPa South 7.7 km/h 15.6 km/h 61 % 0 mm
12:42 -8.2 °C -12.7 °C 34852.1 hPa SSW 2.6 km/h 15.6 km/h 59 % 0 mm
12:47 -8.2 °C -12.8 °C 34852.1 hPa SW 2.6 km/h 15.6 km/h 58 % 0 mm
12:52 -8.2 °C -12.5 °C 34852.1 hPa SW 5.1 km/h 10.3 km/h 60 % 0 mm
13:02 -8.1 °C -12.3 °C 34841.9 hPa SSE 10.3 km/h 10.3 km/h 61 % 0 mm
13:07 -8.1 °C -12.4 °C 34841.9 hPa SSW 7.7 km/h 10.3 km/h 60 % 0 mm
13:17 -8.1 °C -12.6 °C 34841.9 hPa ESE 7.7 km/h 15.6 km/h 59 % 0 mm
13:22 -7.9 °C -12.6 °C 34841.9 hPa SE 7.7 km/h 18.2 km/h 58 % 0 mm
13:32 -8.1 °C -13.1 °C 34831.8 hPa SSW 5.1 km/h 15.6 km/h 55 % 0 mm
13:37 -7.9 °C -12.8 °C 34831.8 hPa WSW 2.6 km/h 15.6 km/h 56 % 0 mm
13:42 -7.8 °C -13 °C 34831.8 hPa SSW 7.7 km/h 15.6 km/h 54 % 0 mm
13:52 -7.6 °C -13.4 °C 34831.8 hPa SSE 5.1 km/h 12.9 km/h 50 % 0 mm
13:57 -7.6 °C -13.9 °C 34831.8 hPa SW 5.1 km/h 12.9 km/h 47 % 0 mm
14:02 -7.5 °C -13.6 °C 34831.8 hPa WSW 5.1 km/h 12.9 km/h 49 % 0 mm
14:12 -7.4 °C -14.2 °C 34831.8 hPa SSW 7.7 km/h 12.9 km/h 45 % 0 mm
14:17 -7.6 °C -13.4 °C 34831.8 hPa SSW 10.3 km/h 12.9 km/h 50 % 0 mm
14:22 -7.5 °C -14.1 °C 34831.8 hPa Calm   18.2 km/h 46 % 0 mm
14:32 -7.3 °C -13.3 °C 34818.2 hPa ENE 5.1 km/h 18.2 km/h 49 % 0 mm
14:37 -7.3 °C -13.2 °C 34818.2 hPa Calm   12.9 km/h 50 % 0 mm
14:42 -7.2 °C -13.7 °C 34808.1 hPa East 10.3 km/h 12.9 km/h 47 % 0 mm
14:52 -7.3 °C -13.6 °C 34808.1 hPa East 7.7 km/h 15.6 km/h 48 % 0 mm
14:57 -7.3 °C -14.1 °C 34808.1 hPa SSW 7.7 km/h 15.6 km/h 45 % 0 mm
15:02 -7.2 °C -13.8 °C 34808.1 hPa NE 7.7 km/h 15.6 km/h 46 % 0 mm
15:12 -7.1 °C -13.7 °C 34797.9 hPa SSW 7.7 km/h 15.6 km/h 46 % 0 mm
15:17 -7.1 °C -13.7 °C 34797.9 hPa SE 5.1 km/h 7.7 km/h 46 % 0 mm
15:22 -7.2 °C -13.8 °C 34797.9 hPa SE 7.7 km/h 15.6 km/h 46 % 0 mm
15:27 -7.1 °C -13.7 °C 34797.9 hPa South 7.7 km/h 15.6 km/h 46 % 0 mm
15:32 -7.1 °C -13.8 °C 34797.9 hPa SSE 5.1 km/h 15.6 km/h 45 % 0 mm
15:42 -7.2 °C -13.8 °C 34797.9 hPa WNW 5.1 km/h 18.2 km/h 46 % 0 mm
15:47 -7.1 °C -14.1 °C 34784.4 hPa WSW 10.3 km/h 18.2 km/h 44 % 0 mm
15:52 -7.3 °C -13.9 °C 34784.4 hPa SSW 5.1 km/h 20.8 km/h 46 % 0 mm
15:57 -7.1 °C -13.7 °C 34784.4 hPa ESE 7.7 km/h 20.8 km/h 46 % 0 mm
16:02 -6.9 °C -13.9 °C 34784.4 hPa South 10.3 km/h 20.8 km/h 44 % 0 mm
16:12 -7.1 °C -14.1 °C 34774.2 hPa WSW 5.1 km/h 15.6 km/h 44 % 0 mm
16:17 -7.1 °C -14.1 °C 34774.2 hPa SW 15.6 km/h 18.2 km/h 44 % 0 mm
16:22 -7 °C -14.2 °C 34774.2 hPa SSE 7.7 km/h 18.2 km/h 43 % 0 mm
16:32 -6.7 °C -13.9 °C 34774.2 hPa WSW 2.6 km/h 18.2 km/h 43 % 0 mm
16:42 -6.6 °C -14.2 °C 34760.7 hPa NNE 2.6 km/h 10.3 km/h 41 % 0 mm
16:47 -6.4 °C -14 °C 34760.7 hPa SSE 2.6 km/h 7.7 km/h 41 % 0 mm
16:52 -6.3 °C -13.6 °C 34760.7 hPa Calm   7.7 km/h 43 % 0 mm
16:57 -6.3 °C -14.2 °C 34760.7 hPa WSW 7.7 km/h 7.7 km/h 40 % 0 mm
17:02 -6.6 °C -13.9 °C 34760.7 hPa Calm   7.7 km/h 42 % 0 mm
17:12 -6.8 °C -14.2 °C 34750.5 hPa WSW 7.7 km/h 10.3 km/h 42 % 0 mm
17:17 -6.7 °C -13.9 °C 34750.5 hPa West 2.6 km/h 15.6 km/h 43 % 0 mm
17:22 -6.6 °C -13.8 °C 34750.5 hPa Calm   15.6 km/h 43 % 0 mm
17:32 -6.6 °C -13.6 °C 34750.5 hPa Calm   12.9 km/h 44 % 0 mm
17:42 -6.6 °C -13.4 °C 34750.5 hPa Calm   7.7 km/h 45 % 0 mm
17:52 -6.6 °C -13.6 °C 34750.5 hPa Calm   7.7 km/h 44 % 0 mm
17:57 -6.5 °C -13.3 °C 34740.4 hPa Calm   7.7 km/h 45 % 0 mm
18:02 -6.6 °C -13.6 °C 34750.5 hPa Calm   10.3 km/h 44 % 0 mm
18:12 -6.7 °C -13.7 °C 34740.4 hPa NNW 2.6 km/h 10.3 km/h 44 % 0 mm
18:17 -6.6 °C -13.6 °C 34740.4 hPa NW 2.6 km/h 7.7 km/h 44 % 0 mm
18:22 -6.6 °C -13.4 °C 34740.4 hPa WNW 5.1 km/h 7.7 km/h 45 % 0 mm
18:32 -6.6 °C -13.3 °C 34740.4 hPa West 2.6 km/h 7.7 km/h 46 % 0 mm
18:42 -6.8 °C -13.4 °C 34740.4 hPa West 2.6 km/h 15.6 km/h 46 % 0 mm
18:52 -6.8 °C -13.4 °C 34740.4 hPa West 2.6 km/h 15.6 km/h 46 % 0 mm
19:02 -6.8 °C -13.4 °C 34750.5 hPa West 2.6 km/h 12.9 km/h 46 % 0 mm
19:12 -6.8 °C -13.2 °C 34750.5 hPa Calm   10.3 km/h 47 % 0 mm
19:17 -6.7 °C -13.2 °C 34750.5 hPa Calm   10.3 km/h 47 % 0 mm
19:22 -6.9 °C -13.4 °C 34750.5 hPa Calm   10.3 km/h 47 % 0 mm
19:32 -7.1 °C -13.6 °C 34750.5 hPa Calm   2.6 km/h 47 % 0 mm
19:42 -7.3 °C -13.6 °C 34750.5 hPa Calm     48 % 0 mm
19:52 -7.6 °C -13.6 °C 34750.5 hPa Calm     49 % 0 mm
19:57 -7.6 °C -13.7 °C 34750.5 hPa Calm     49 % 0 mm
20:02 -7.7 °C -13.6 °C 34750.5 hPa Calm     50 % 0 mm
20:07 -7.8 °C -13.7 °C 34750.5 hPa Calm     50 % 0 mm
20:12 -7.9 °C -13.8 °C 34750.5 hPa Calm     50 % 0 mm
20:17 -7.9 °C -13.7 °C 34750.5 hPa Calm     51 % 0 mm
20:22 -8.1 °C -13.6 °C 34750.5 hPa Calm     52 % 0 mm
20:27 -8.2 °C -13.6 °C 34750.5 hPa Calm     53 % 0 mm
20:32 -8.3 °C -13.7 °C 34760.7 hPa Calm     53 % 0 mm
20:42 -8.7 °C -13.4 °C 34760.7 hPa North 2.6 km/h   57 % 0 mm
20:52 -8.9 °C -13.7 °C 34760.7 hPa Calm   5.1 km/h 57 % 0 mm
20:57 -9.1 °C -13.6 °C 34760.7 hPa Calm   5.1 km/h 58 % 0 mm
21:02 -9.1 °C -13.7 °C 34760.7 hPa NNW 2.6 km/h 2.6 km/h 58 % 0 mm
21:07 -9.2 °C -13.7 °C 34760.7 hPa NNW 2.6 km/h 5.1 km/h 58 % 0 mm
21:17 -9.3 °C -13.6 °C 34774.2 hPa Calm   5.1 km/h 60 % 0 mm
21:22 -9.4 °C -13.7 °C 34774.2 hPa NNW 2.6 km/h 2.6 km/h 60 % 0 mm
21:32 -9.6 °C -13.7 °C 34774.2 hPa NNW 2.6 km/h 2.6 km/h 61 % 0 mm
21:42 -9.7 °C -13.8 °C 34774.2 hPa North 2.6 km/h 5.1 km/h 61 % 0 mm
21:47 -9.8 °C -13.8 °C 34774.2 hPa NNW 2.6 km/h 7.7 km/h 62 % 0 mm
21:52 -9.9 °C -13.8 °C 34774.2 hPa Calm   7.7 km/h 63 % 0 mm
21:57 -9.9 °C -13.9 °C 34774.2 hPa North 2.6 km/h 7.7 km/h 62 % 0 mm
22:02 -10.1 °C -14.1 °C 34774.2 hPa NNW 5.1 km/h 5.1 km/h 62 % 0 mm
22:12 -10.5 °C -13.9 °C 34774.2 hPa WNW 2.6 km/h 5.1 km/h 66 % 0 mm
22:22 -10.6 °C -14.2 °C 34784.4 hPa Calm   5.1 km/h 65 % 0 mm
22:27 -10.6 °C -14 °C 34784.4 hPa Calm   2.6 km/h 66 % 0 mm
22:32 -10.7 °C -14.1 °C 34784.4 hPa Calm   2.6 km/h 66 % 0 mm
22:42 -10.9 °C -14 °C 34784.4 hPa WNW 2.6 km/h 2.6 km/h 69 % 0 mm
22:47 -11 °C -13.8 °C 34784.4 hPa WNW 2.6 km/h 2.6 km/h 71 % 0 mm
22:52 -11.1 °C -13.7 °C 34784.4 hPa Calm   2.6 km/h 73 % 0 mm
22:57 -11.2 °C -13.7 °C 34784.4 hPa WNW 2.6 km/h 2.6 km/h 74 % 0 mm
23:02 -11.2 °C -13.7 °C 34784.4 hPa WNW 2.6 km/h 2.6 km/h 74 % 0 mm
23:12 -10.9 °C -14.2 °C 34784.4 hPa Calm   2.6 km/h 67 % 0 mm
23:17 -10.9 °C -14.2 °C 34784.4 hPa Calm   2.6 km/h 67 % 0 mm
23:22 -10.9 °C -14.3 °C 34784.4 hPa Calm   2.6 km/h 67 % 0 mm
23:32 -11.1 °C -14.3 °C 34784.4 hPa North 2.6 km/h 2.6 km/h 68 % 0 mm
23:37 -11.1 °C -14.2 °C 34784.4 hPa Calm   2.6 km/h 68 % 0 mm
23:42 -11.1 °C -14.1 °C 34784.4 hPa North 2.6 km/h 2.6 km/h 69 % 0 mm
23:47 -11 °C -14.1 °C 34784.4 hPa North 2.6 km/h 2.6 km/h 69 % 0 mm
23:52 -10.9 °C -14.1 °C 34784.4 hPa Calm   5.1 km/h 68 % 0 mm
23:57 -10.9 °C -14.1 °C 34784.4 hPa NNW 2.6 km/h 5.1 km/h 68 % 0 mm
Meteo18
Compliments of Weather Underground - 4 mb

Script developed by  Jim McMurry - jmcmurry@mwt.net Adapted for the template by  Wim van der Kuil - Leuven-Template.eu

You find our weather info also at:

European Weather Network

Weather Underground

Equipment we use:

Weather-station
Davis Vue

Weather-program
Meteobridge

Weather-server
Raspberry PI 2 B+

Provider
1 and 1

Davis Vue

Meteobridge

Raspberry PI 2 B+

1 and 1